Funchalense 5 — CSKN — position and weather

sailwx.info

Track history (hours):
 
Tides and Currents Weather Stations Pressure Air Temp Water Temp Dewpoint Dewpoint Depression Visibility Wind Speed Wind Dir Waves Ship Positions

Funchalense 5

Last reported at 2015-May-24 06:33 UTC. Time now 2015-May-24 11:11 UTC.
Position N 37°02' W 011°22'.

Length 127 m; draft 7.6 m.

Type: Ship. MMSI: 255804250.

Date/timePositionNaut miles runAvg speedWind from/ knotsBaromVisibWave heightAir tempDewpointWater temp
2015-May-24 06:33N 37°02' W 011°22'1514.8
2015-May-24 05:33N 37°13' W 011°10'1514.7
2015-May-24 04:32N 37°24' W 010°56'5115.1
2015-May-24 01:10N 37°59' W 010°10'915.0
2015-May-24 00:33N 38°06' W 010°02'1515.1
2015-May-23 23:33N 38°17' W 009°49'1615.7
2015-May-23 22:33N 38°28' W 009°35'1616.1
2015-May-23 21:32N 38°39' W 009°20'11 4.9
2015-May-23 19:18N 38°43' W 009°07'0 0.1
2015-May-23 18:28N 38°43' W 009°07'0 0.0
2015-May-23 17:25N 38°43' W 009°07'0 0.0
2015-May-23 16:31N 38°43' W 009°07'0 0.0
2015-May-23 15:33N 38°43' W 009°07'0 0.0
2015-May-23 14:33N 38°43' W 009°07'0 0.0
2015-May-23 12:26N 38°43' W 009°07'0 0.0
2015-May-23 08:30N 38°43' W 009°07'0 0.0
2015-May-23 07:33N 38°43' W 009°07'0 0.0
2015-May-23 06:32N 38°43' W 009°07'9 9.0
2015-May-23 05:33N 38°41' W 009°18'1514.8
2015-May-23 04:33N 38°38' W 009°36'1413.6
2015-May-23 03:33N 38°50' W 009°44'1616.2
2015-May-23 02:33N 39°07' W 009°44'1616.1
2015-May-23 01:33N 39°23' W 009°44'1715.7
2015-May-23 00:27N 39°40' W 009°40'1415.9
2015-May-22 23:33N 39°53' W 009°33'1616.0
2015-May-22 22:33N 40°07' W 009°24'1615.9
2015-May-22 21:32N 40°22' W 009°15'1616.3
2015-May-22 20:33N 40°36' W 009°06'1616.4
2015-May-22 19:33N 40°51' W 008°56'15 0.7
2015-May-21 21:05N 41°04' W 008°47'915.7
2015-May-21 20:29N 40°57' W 008°55'1415.1
2015-May-21 19:32N 40°46' W 009°06'3414.4
2015-May-21 17:12N 40°19' W 009°33'913.9
2015-May-21 16:32N 40°12' W 009°40'1813.8
2015-May-21 15:16N 39°57' W 009°53'1014.0
2015-May-21 14:33N 39°49' W 010°01'1413.8
2015-May-21 13:33N 39°38' W 010°12'1613.7
2015-May-21 12:22N 39°25' W 010°24'21712.9
2015-May-20 19:33N 36°31' W 013°08'1413.3
2015-May-20 18:31N 36°20' W 013°18'1513.3
2015-May-20 17:25N 36°08' W 013°28'1213.3
2015-May-20 16:31N 35°58' W 013°37'  
2015-May-17 05:20N 37°10' W 011°14'3015.3
2015-May-17 03:23N 37°32' W 010°48'1315.6
2015-May-17 02:32N 37°41' W 010°37'1615.8
2015-May-17 01:33N 37°52' W 010°22'2315.5
2015-May-17 00:05N 38°08' W 010°02'815.4
2015-May-16 23:33N 38°13' W 009°55'1615.5
2015-May-16 22:32N 38°25' W 009°40'1615.4
2015-May-16 21:32N 38°35' W 009°26'1515.5
2015-May-16 20:33N 38°42' W 009°08'2 0.8
2015-May-16 18:19N 38°43' W 009°07'0 0.0
2015-May-16 17:31N 38°43' W 009°07'0 0.0
2015-May-16 09:28N 38°43' W 009°07'0 0.0
2015-May-16 08:33N 38°43' W 009°07'0 0.0
2015-May-16 07:33N 38°43' W 009°07'0 0.0
2015-May-16 06:33N 38°43' W 009°07'10 9.6
2015-May-16 05:33N 38°40' W 009°18'1514.7
2015-May-16 04:33N 38°39' W 009°37'1715.0
2015-May-16 03:26N 38°54' W 009°44'11616.3
2015-May-15 20:18N 40°45' W 008°59'1316.7
2015-May-15 19:33N 40°56' W 008°52'16 0.5
2015-May-14 13:14N 41°10' W 008°42'3 4.1
2015-May-14 12:33N 41°08' W 008°44'6 5.9
2015-May-14 11:33N 41°03' W 008°49'  
Track history (hours):
 
Tides and Currents Weather Stations Pressure Air Temp Water Temp Dewpoint Dewpoint Depression Visibility Wind Speed Wind Dir Waves Ship Positions

Funchalense 5

Last reported at 2015-May-24 06:33 UTC. Time now 2015-May-24 11:11 UTC.
Position N 37°02' W 011°22'.

Length 127 m; draft 7.6 m.

Type: Ship. MMSI: 255804250.

Date/timePositionNaut miles runAvg speedWind from/ knotsBaromVisibWave heightAir tempDewpointWater temp
2015-May-24 06:33N 37°02' W 011°22'1514.8
2015-May-24 05:33N 37°13' W 011°10'1514.7
2015-May-24 04:32N 37°24' W 010°56'5115.1
2015-May-24 01:10N 37°59' W 010°10'915.0
2015-May-24 00:33N 38°06' W 010°02'1515.1
2015-May-23 23:33N 38°17' W 009°49'1615.7
2015-May-23 22:33N 38°28' W 009°35'1616.1
2015-May-23 21:32N 38°39' W 009°20'11 4.9
2015-May-23 19:18N 38°43' W 009°07'0 0.1
2015-May-23 18:28N 38°43' W 009°07'0 0.0
2015-May-23 17:25N 38°43' W 009°07'0 0.0
2015-May-23 16:31N 38°43' W 009°07'0 0.0
2015-May-23 15:33N 38°43' W 009°07'0 0.0
2015-May-23 14:33N 38°43' W 009°07'0 0.0
2015-May-23 12:26N 38°43' W 009°07'0 0.0
2015-May-23 08:30N 38°43' W 009°07'0 0.0
2015-May-23 07:33N 38°43' W 009°07'0 0.0
2015-May-23 06:32N 38°43' W 009°07'9 9.0
2015-May-23 05:33N 38°41' W 009°18'1514.8
2015-May-23 04:33N 38°38' W 009°36'1413.6
2015-May-23 03:33N 38°50' W 009°44'1616.2
2015-May-23 02:33N 39°07' W 009°44'1616.1
2015-May-23 01:33N 39°23' W 009°44'1715.7
2015-May-23 00:27N 39°40' W 009°40'1415.9
2015-May-22 23:33N 39°53' W 009°33'1616.0
2015-May-22 22:33N 40°07' W 009°24'1615.9
2015-May-22 21:32N 40°22' W 009°15'1616.3
2015-May-22 20:33N 40°36' W 009°06'1616.4
2015-May-22 19:33N 40°51' W 008°56'15 0.7
2015-May-21 21:05N 41°04' W 008°47'915.7
2015-May-21 20:29N 40°57' W 008°55'1415.1
2015-May-21 19:32N 40°46' W 009°06'3414.4
2015-May-21 17:12N 40°19' W 009°33'913.9
2015-May-21 16:32N 40°12' W 009°40'1813.8
2015-May-21 15:16N 39°57' W 009°53'1014.0
2015-May-21 14:33N 39°49' W 010°01'1413.8
2015-May-21 13:33N 39°38' W 010°12'1613.7
2015-May-21 12:22N 39°25' W 010°24'21712.9
2015-May-20 19:33N 36°31' W 013°08'1413.3
2015-May-20 18:31N 36°20' W 013°18'1513.3
2015-May-20 17:25N 36°08' W 013°28'1213.3
2015-May-20 16:31N 35°58' W 013°37'  
2015-May-17 05:20N 37°10' W 011°14'3015.3
2015-May-17 03:23N 37°32' W 010°48'1315.6
2015-May-17 02:32N 37°41' W 010°37'1615.8
2015-May-17 01:33N 37°52' W 010°22'2315.5
2015-May-17 00:05N 38°08' W 010°02'815.4
2015-May-16 23:33N 38°13' W 009°55'1615.5
2015-May-16 22:32N 38°25' W 009°40'1615.4
2015-May-16 21:32N 38°35' W 009°26'1515.5
2015-May-16 20:33N 38°42' W 009°08'2 0.8
2015-May-16 18:19N 38°43' W 009°07'0 0.0
2015-May-16 17:31N 38°43' W 009°07'0 0.0
2015-May-16 09:28N 38°43' W 009°07'0 0.0
2015-May-16 08:33N 38°43' W 009°07'0 0.0
2015-May-16 07:33N 38°43' W 009°07'0 0.0
2015-May-16 06:33N 38°43' W 009°07'10 9.6
2015-May-16 05:33N 38°40' W 009°18'1514.7
2015-May-16 04:33N 38°39' W 009°37'1715.0
2015-May-16 03:26N 38°54' W 009°44'11616.3
2015-May-15 20:18N 40°45' W 008°59'1316.7
2015-May-15 19:33N 40°56' W 008°52'16 0.5
2015-May-14 13:14N 41°10' W 008°42'3 4.1
2015-May-14 12:33N 41°08' W 008°44'6 5.9
2015-May-14 11:33N 41°03' W 008°49'  

Dump ship's entire track history